sensor_id;sensor_type;location;lat;lon;timestamp;P1;durP1;ratioP1;P2;durP2;ratioP2
41446;SDS011;27185;52.040;4.490;2022-09-13T00:00:27;6.20;;;4.15;;
41446;SDS011;27185;52.040;4.490;2022-09-13T00:03:13;6.97;;;4.63;;
41446;SDS011;27185;52.040;4.490;2022-09-13T00:06:10;10.68;;;5.03;;
41446;SDS011;27185;52.040;4.490;2022-09-13T00:08:58;6.35;;;4.35;;
41446;SDS011;27185;52.040;4.490;2022-09-13T00:11:45;7.88;;;4.43;;
41446;SDS011;27185;52.040;4.490;2022-09-13T00:14:30;6.25;;;4.88;;
41446;SDS011;27185;52.040;4.490;2022-09-13T00:17:16;8.13;;;5.50;;
41446;SDS011;27185;52.040;4.490;2022-09-13T00:20:02;6.13;;;4.68;;
41446;SDS011;27185;52.040;4.490;2022-09-13T00:22:49;8.35;;;4.85;;
41446;SDS011;27185;52.040;4.490;2022-09-13T00:25:35;10.25;;;5.15;;
41446;SDS011;27185;52.040;4.490;2022-09-13T00:28:21;9.13;;;4.85;;
41446;SDS011;27185;52.040;4.490;2022-09-13T00:31:07;8.10;;;4.95;;
41446;SDS011;27185;52.040;4.490;2022-09-13T00:33:54;7.90;;;4.53;;
41446;SDS011;27185;52.040;4.490;2022-09-13T00:36:42;6.28;;;4.75;;
41446;SDS011;27185;52.040;4.490;2022-09-13T00:39:28;9.07;;;4.85;;
41446;SDS011;27185;52.040;4.490;2022-09-13T00:42:13;6.03;;;4.65;;
41446;SDS011;27185;52.040;4.490;2022-09-13T00:45:00;6.40;;;4.45;;
41446;SDS011;27185;52.040;4.490;2022-09-13T00:47:59;5.40;;;4.28;;
41446;SDS011;27185;52.040;4.490;2022-09-13T00:50:51;7.53;;;4.57;;
41446;SDS011;27185;52.040;4.490;2022-09-13T00:53:41;6.25;;;4.65;;
41446;SDS011;27185;52.040;4.490;2022-09-13T00:59:23;5.32;;;4.63;;
41446;SDS011;27185;52.040;4.490;2022-09-13T01:02:12;5.55;;;4.28;;
41446;SDS011;27185;52.040;4.490;2022-09-13T01:04:58;6.47;;;4.57;;
41446;SDS011;27185;52.040;4.490;2022-09-13T01:07:44;7.18;;;5.07;;
41446;SDS011;27185;52.040;4.490;2022-09-13T01:10:30;6.28;;;4.72;;
41446;SDS011;27185;52.040;4.490;2022-09-13T01:13:19;8.15;;;5.10;;
41446;SDS011;27185;52.040;4.490;2022-09-13T01:16:07;6.45;;;4.85;;
41446;SDS011;27185;52.040;4.490;2022-09-13T01:18:52;6.30;;;4.85;;
41446;SDS011;27185;52.040;4.490;2022-09-13T01:25:15;6.38;;;4.10;;
41446;SDS011;27185;52.040;4.490;2022-09-13T01:28:24;4.75;;;4.25;;
41446;SDS011;27185;52.040;4.490;2022-09-13T01:31:36;5.95;;;4.45;;
41446;SDS011;27185;52.040;4.490;2022-09-13T01:38:05;10.13;;;4.28;;
41446;SDS011;27185;52.040;4.490;2022-09-13T01:46:21;4.78;;;3.95;;
41446;SDS011;27185;52.040;4.490;2022-09-13T01:52:20;5.97;;;4.05;;
41446;SDS011;27185;52.040;4.490;2022-09-13T01:58:20;7.00;;;4.47;;
41446;SDS011;27185;52.040;4.490;2022-09-13T02:01:33;6.38;;;3.85;;
41446;SDS011;27185;52.040;4.490;2022-09-13T02:04:38;4.95;;;3.70;;
41446;SDS011;27185;52.040;4.490;2022-09-13T02:07:34;6.00;;;4.03;;
41446;SDS011;27185;52.040;4.490;2022-09-13T02:10:38;6.35;;;4.45;;
41446;SDS011;27185;52.040;4.490;2022-09-13T02:13:29;8.88;;;4.80;;
41446;SDS011;27185;52.040;4.490;2022-09-13T02:16:20;6.97;;;4.95;;
41446;SDS011;27185;52.040;4.490;2022-09-13T02:19:18;5.18;;;4.57;;
41446;SDS011;27185;52.040;4.490;2022-09-13T02:22:07;5.10;;;4.43;;
41446;SDS011;27185;52.040;4.490;2022-09-13T02:24:59;6.07;;;4.55;;
41446;SDS011;27185;52.040;4.490;2022-09-13T02:27:51;7.35;;;4.55;;
41446;SDS011;27185;52.040;4.490;2022-09-13T02:30:44;6.57;;;4.35;;
41446;SDS011;27185;52.040;4.490;2022-09-13T02:33:35;5.13;;;4.00;;
41446;SDS011;27185;52.040;4.490;2022-09-13T02:36:30;6.63;;;4.63;;
41446;SDS011;27185;52.040;4.490;2022-09-13T02:39:22;6.38;;;4.18;;
41446;SDS011;27185;52.040;4.490;2022-09-13T02:42:13;5.40;;;3.85;;
41446;SDS011;27185;52.040;4.490;2022-09-13T02:45:03;7.75;;;4.15;;
41446;SDS011;27185;52.040;4.490;2022-09-13T02:47:55;6.50;;;4.07;;
41446;SDS011;27185;52.040;4.490;2022-09-13T02:53:40;6.05;;;3.67;;
41446;SDS011;27185;52.040;4.490;2022-09-13T02:56:58;5.35;;;3.97;;
41446;SDS011;27185;52.040;4.490;2022-09-13T02:59:59;5.65;;;3.90;;
41446;SDS011;27185;52.040;4.490;2022-09-13T03:02:45;5.30;;;4.03;;
41446;SDS011;27185;52.040;4.490;2022-09-13T03:05:32;6.78;;;3.88;;
41446;SDS011;27185;52.040;4.490;2022-09-13T03:08:18;6.53;;;4.28;;
41446;SDS011;27185;52.040;4.490;2022-09-13T03:11:15;4.82;;;4.28;;
41446;SDS011;27185;52.040;4.490;2022-09-13T03:14:40;6.95;;;4.50;;
41446;SDS011;27185;52.040;4.490;2022-09-13T03:24:35;5.22;;;4.00;;
41446;SDS011;27185;52.040;4.490;2022-09-13T03:30:10;5.68;;;4.28;;
41446;SDS011;27185;52.040;4.490;2022-09-13T03:36:07;5.65;;;4.47;;
41446;SDS011;27185;52.040;4.490;2022-09-13T03:39:07;7.38;;;4.32;;
41446;SDS011;27185;52.040;4.490;2022-09-13T03:42:08;6.07;;;4.50;;
41446;SDS011;27185;52.040;4.490;2022-09-13T03:45:07;6.85;;;4.80;;
41446;SDS011;27185;52.040;4.490;2022-09-13T03:47:54;8.70;;;5.30;;
41446;SDS011;27185;52.040;4.490;2022-09-13T03:50:40;7.10;;;5.38;;
41446;SDS011;27185;52.040;4.490;2022-09-13T03:53:28;7.95;;;5.25;;
41446;SDS011;27185;52.040;4.490;2022-09-13T03:56:18;9.27;;;5.18;;
41446;SDS011;27185;52.040;4.490;2022-09-13T03:59:04;6.13;;;5.50;;
41446;SDS011;27185;52.040;4.490;2022-09-13T04:01:50;7.72;;;5.75;;
41446;SDS011;27185;52.040;4.490;2022-09-13T04:04:37;6.57;;;4.97;;
41446;SDS011;27185;52.040;4.490;2022-09-13T04:07:24;8.30;;;5.65;;
41446;SDS011;27185;52.040;4.490;2022-09-13T04:10:10;11.20;;;6.30;;
41446;SDS011;27185;52.040;4.490;2022-09-13T04:12:56;8.13;;;5.97;;
41446;SDS011;27185;52.040;4.490;2022-09-13T04:15:42;10.75;;;6.53;;
41446;SDS011;27185;52.040;4.490;2022-09-13T04:18:28;7.43;;;6.45;;
41446;SDS011;27185;52.040;4.490;2022-09-13T04:21:13;8.18;;;6.47;;
41446;SDS011;27185;52.040;4.490;2022-09-13T04:24:00;8.73;;;6.47;;
41446;SDS011;27185;52.040;4.490;2022-09-13T04:26:49;11.63;;;6.13;;
41446;SDS011;27185;52.040;4.490;2022-09-13T04:29:35;11.43;;;6.88;;
41446;SDS011;27185;52.040;4.490;2022-09-13T04:32:21;9.90;;;6.38;;
41446;SDS011;27185;52.040;4.490;2022-09-13T04:35:06;11.02;;;6.70;;
41446;SDS011;27185;52.040;4.490;2022-09-13T04:37:56;11.13;;;9.05;;
41446;SDS011;27185;52.040;4.490;2022-09-13T04:40:42;9.73;;;8.18;;
41446;SDS011;27185;52.040;4.490;2022-09-13T04:43:28;10.95;;;7.53;;
41446;SDS011;27185;52.040;4.490;2022-09-13T04:46:13;11.88;;;10.02;;
41446;SDS011;27185;52.040;4.490;2022-09-13T04:48:59;15.05;;;10.60;;
41446;SDS011;27185;52.040;4.490;2022-09-13T04:51:44;14.98;;;9.63;;
41446;SDS011;27185;52.040;4.490;2022-09-13T04:54:30;12.90;;;8.50;;
41446;SDS011;27185;52.040;4.490;2022-09-13T04:57:16;13.60;;;8.65;;
41446;SDS011;27185;52.040;4.490;2022-09-13T05:00:02;11.70;;;8.18;;
41446;SDS011;27185;52.040;4.490;2022-09-13T05:02:53;8.75;;;7.65;;
41446;SDS011;27185;52.040;4.490;2022-09-13T05:05:40;12.35;;;9.32;;
41446;SDS011;27185;52.040;4.490;2022-09-13T05:08:25;12.55;;;9.60;;
41446;SDS011;27185;52.040;4.490;2022-09-13T05:11:11;12.65;;;9.52;;
41446;SDS011;27185;52.040;4.490;2022-09-13T05:13:57;13.52;;;9.75;;
41446;SDS011;27185;52.040;4.490;2022-09-13T05:16:44;13.40;;;9.57;;
41446;SDS011;27185;52.040;4.490;2022-09-13T05:19:30;13.00;;;9.88;;
41446;SDS011;27185;52.040;4.490;2022-09-13T05:22:15;12.10;;;10.30;;
41446;SDS011;27185;52.040;4.490;2022-09-13T05:25:01;16.27;;;10.50;;
41446;SDS011;27185;52.040;4.490;2022-09-13T05:27:46;13.73;;;10.35;;
41446;SDS011;27185;52.040;4.490;2022-09-13T05:30:32;12.20;;;9.70;;
41446;SDS011;27185;52.040;4.490;2022-09-13T05:33:17;16.77;;;11.00;;
41446;SDS011;27185;52.040;4.490;2022-09-13T05:36:03;15.85;;;9.88;;
41446;SDS011;27185;52.040;4.490;2022-09-13T05:38:50;14.70;;;10.82;;
41446;SDS011;27185;52.040;4.490;2022-09-13T05:41:39;14.35;;;9.55;;
41446;SDS011;27185;52.040;4.490;2022-09-13T05:44:25;14.10;;;10.05;;
41446;SDS011;27185;52.040;4.490;2022-09-13T05:47:12;13.35;;;10.07;;
41446;SDS011;27185;52.040;4.490;2022-09-13T05:49:58;12.80;;;10.20;;
41446;SDS011;27185;52.040;4.490;2022-09-13T05:52:43;12.98;;;10.77;;
41446;SDS011;27185;52.040;4.490;2022-09-13T05:55:29;16.88;;;10.95;;
41446;SDS011;27185;52.040;4.490;2022-09-13T05:58:15;16.15;;;11.25;;
41446;SDS011;27185;52.040;4.490;2022-09-13T06:01:00;13.57;;;11.43;;
41446;SDS011;27185;52.040;4.490;2022-09-13T06:03:49;16.42;;;11.60;;
41446;SDS011;27185;52.040;4.490;2022-09-13T06:06:36;18.10;;;12.02;;
41446;SDS011;27185;52.040;4.490;2022-09-13T06:09:22;14.30;;;10.48;;
41446;SDS011;27185;52.040;4.490;2022-09-13T06:12:07;13.05;;;10.18;;
41446;SDS011;27185;52.040;4.490;2022-09-13T06:14:53;14.82;;;10.63;;
41446;SDS011;27185;52.040;4.490;2022-09-13T06:17:38;16.15;;;9.60;;
41446;SDS011;27185;52.040;4.490;2022-09-13T06:20:24;13.43;;;9.23;;
41446;SDS011;27185;52.040;4.490;2022-09-13T06:23:10;12.02;;;8.05;;
41446;SDS011;27185;52.040;4.490;2022-09-13T06:26:03;11.32;;;7.70;;
41446;SDS011;27185;52.040;4.490;2022-09-13T06:28:51;7.57;;;6.03;;
41446;SDS011;27185;52.040;4.490;2022-09-13T06:31:38;9.02;;;5.70;;
41446;SDS011;27185;52.040;4.490;2022-09-13T06:34:28;5.82;;;3.15;;
41446;SDS011;27185;52.040;4.490;2022-09-13T06:37:14;6.03;;;2.90;;
41446;SDS011;27185;52.040;4.490;2022-09-13T06:39:59;4.68;;;2.75;;
41446;SDS011;27185;52.040;4.490;2022-09-13T06:42:45;4.90;;;2.45;;
41446;SDS011;27185;52.040;4.490;2022-09-13T06:45:30;4.25;;;1.98;;
41446;SDS011;27185;52.040;4.490;2022-09-13T06:48:16;7.53;;;1.80;;
41446;SDS011;27185;52.040;4.490;2022-09-13T06:51:03;2.90;;;1.60;;
41446;SDS011;27185;52.040;4.490;2022-09-13T06:53:51;3.08;;;1.30;;
41446;SDS011;27185;52.040;4.490;2022-09-13T06:56:40;2.63;;;0.95;;
41446;SDS011;27185;52.040;4.490;2022-09-13T06:59:26;1.95;;;0.82;;
41446;SDS011;27185;52.040;4.490;2022-09-13T07:02:11;2.53;;;0.95;;
41446;SDS011;27185;52.040;4.490;2022-09-13T07:04:58;2.42;;;0.90;;
41446;SDS011;27185;52.040;4.490;2022-09-13T07:07:44;2.97;;;0.60;;
41446;SDS011;27185;52.040;4.490;2022-09-13T07:10:29;2.10;;;0.70;;
41446;SDS011;27185;52.040;4.490;2022-09-13T07:13:15;1.90;;;0.80;;
41446;SDS011;27185;52.040;4.490;2022-09-13T07:16:01;1.90;;;0.85;;
41446;SDS011;27185;52.040;4.490;2022-09-13T07:19:01;2.78;;;1.30;;
41446;SDS011;27185;52.040;4.490;2022-09-13T07:21:49;3.10;;;1.20;;
41446;SDS011;27185;52.040;4.490;2022-09-13T07:24:35;6.18;;;1.30;;
41446;SDS011;27185;52.040;4.490;2022-09-13T07:27:20;5.20;;;1.02;;
41446;SDS011;27185;52.040;4.490;2022-09-13T07:30:06;3.20;;;1.27;;
41446;SDS011;27185;52.040;4.490;2022-09-13T07:32:52;7.20;;;1.10;;
41446;SDS011;27185;52.040;4.490;2022-09-13T07:35:37;5.75;;;1.00;;
41446;SDS011;27185;52.040;4.490;2022-09-13T07:38:23;2.95;;;0.90;;
41446;SDS011;27185;52.040;4.490;2022-09-13T07:41:12;4.22;;;1.00;;
41446;SDS011;27185;52.040;4.490;2022-09-13T07:44:00;5.43;;;1.48;;
41446;SDS011;27185;52.040;4.490;2022-09-13T07:46:46;5.82;;;1.30;;
41446;SDS011;27185;52.040;4.490;2022-09-13T07:49:32;4.65;;;1.30;;
41446;SDS011;27185;52.040;4.490;2022-09-13T07:52:17;5.38;;;1.05;;
41446;SDS011;27185;52.040;4.490;2022-09-13T07:55:03;3.42;;;1.13;;
41446;SDS011;27185;52.040;4.490;2022-09-13T07:57:50;2.97;;;1.10;;
41446;SDS011;27185;52.040;4.490;2022-09-13T08:00:36;5.95;;;1.00;;
41446;SDS011;27185;52.040;4.490;2022-09-13T08:03:21;3.30;;;1.05;;
41446;SDS011;27185;52.040;4.490;2022-09-13T08:06:07;2.50;;;0.90;;
41446;SDS011;27185;52.040;4.490;2022-09-13T08:08:53;2.75;;;0.93;;
41446;SDS011;27185;52.040;4.490;2022-09-13T08:11:44;1.85;;;1.00;;
41446;SDS011;27185;52.040;4.490;2022-09-13T08:14:36;2.33;;;0.90;;
41446;SDS011;27185;52.040;4.490;2022-09-13T08:17:22;2.88;;;1.05;;
41446;SDS011;27185;52.040;4.490;2022-09-13T08:20:08;3.88;;;0.60;;
41446;SDS011;27185;52.040;4.490;2022-09-13T08:22:53;2.15;;;0.80;;
41446;SDS011;27185;52.040;4.490;2022-09-13T08:25:39;2.60;;;0.95;;
41446;SDS011;27185;52.040;4.490;2022-09-13T08:28:25;1.80;;;0.60;;
41446;SDS011;27185;52.040;4.490;2022-09-13T08:31:11;2.15;;;0.75;;
41446;SDS011;27185;52.040;4.490;2022-09-13T08:34:01;3.80;;;0.70;;
41446;SDS011;27185;52.040;4.490;2022-09-13T08:36:46;1.65;;;0.52;;
41446;SDS011;27185;52.040;4.490;2022-09-13T08:39:32;3.25;;;0.57;;
41446;SDS011;27185;52.040;4.490;2022-09-13T08:42:20;3.55;;;0.65;;
41446;SDS011;27185;52.040;4.490;2022-09-13T08:45:23;1.75;;;0.50;;
41446;SDS011;27185;52.040;4.490;2022-09-13T08:48:13;1.45;;;0.40;;
41446;SDS011;27185;52.040;4.490;2022-09-13T08:51:04;1.55;;;0.40;;
41446;SDS011;27185;52.040;4.490;2022-09-13T08:53:51;3.58;;;0.50;;
41446;SDS011;27185;52.040;4.490;2022-09-13T08:56:40;5.47;;;0.50;;
41446;SDS011;27185;52.040;4.490;2022-09-13T08:59:35;1.70;;;0.40;;
41446;SDS011;27185;52.040;4.490;2022-09-13T09:05:59;1.20;;;0.40;;
41446;SDS011;27185;52.040;4.490;2022-09-13T09:08:46;2.97;;;0.50;;
41446;SDS011;27185;52.040;4.490;2022-09-13T09:11:39;4.05;;;0.35;;
41446;SDS011;27185;52.040;4.490;2022-09-13T09:14:37;2.35;;;0.30;;
41446;SDS011;27185;52.040;4.490;2022-09-13T09:17:41;1.58;;;0.38;;
41446;SDS011;27185;52.040;4.490;2022-09-13T09:20:30;2.70;;;0.40;;
41446;SDS011;27185;52.040;4.490;2022-09-13T09:23:38;3.58;;;0.40;;
41446;SDS011;27185;52.040;4.490;2022-09-13T09:26:28;2.88;;;0.40;;
41446;SDS011;27185;52.040;4.490;2022-09-13T09:29:16;2.65;;;0.40;;
41446;SDS011;27185;52.040;4.490;2022-09-13T09:35:22;3.55;;;0.40;;
41446;SDS011;27185;52.040;4.490;2022-09-13T09:38:32;2.72;;;0.63;;
41446;SDS011;27185;52.040;4.490;2022-09-13T09:41:32;3.05;;;0.40;;
41446;SDS011;27185;52.040;4.490;2022-09-13T09:44:23;3.25;;;0.40;;
41446;SDS011;27185;52.040;4.490;2022-09-13T09:47:16;3.05;;;0.60;;
41446;SDS011;27185;52.040;4.490;2022-09-13T09:50:12;3.25;;;0.40;;
41446;SDS011;27185;52.040;4.490;2022-09-13T09:53:03;3.10;;;0.73;;
41446;SDS011;27185;52.040;4.490;2022-09-13T09:56:20;5.28;;;0.65;;
41446;SDS011;27185;52.040;4.490;2022-09-13T09:59:27;1.92;;;0.50;;
41446;SDS011;27185;52.040;4.490;2022-09-13T10:02:16;4.95;;;0.40;;
41446;SDS011;27185;52.040;4.490;2022-09-13T10:05:04;3.38;;;0.50;;
41446;SDS011;27185;52.040;4.490;2022-09-13T10:07:52;4.18;;;0.50;;
41446;SDS011;27185;52.040;4.490;2022-09-13T10:10:42;2.60;;;0.50;;
41446;SDS011;27185;52.040;4.490;2022-09-13T10:13:29;3.20;;;0.52;;
41446;SDS011;27185;52.040;4.490;2022-09-13T10:16:34;2.67;;;0.57;;
41446;SDS011;27185;52.040;4.490;2022-09-13T10:19:23;2.40;;;0.50;;
41446;SDS011;27185;52.040;4.490;2022-09-13T10:22:10;2.53;;;0.60;;
41446;SDS011;27185;52.040;4.490;2022-09-13T10:28:15;3.75;;;0.50;;
41446;SDS011;27185;52.040;4.490;2022-09-13T10:31:07;2.67;;;0.50;;
41446;SDS011;27185;52.040;4.490;2022-09-13T10:33:57;2.38;;;0.60;;
41446;SDS011;27185;52.040;4.490;2022-09-13T10:36:49;1.38;;;0.63;;
41446;SDS011;27185;52.040;4.490;2022-09-13T10:39:36;5.25;;;0.60;;
41446;SDS011;27185;52.040;4.490;2022-09-13T10:42:30;2.05;;;0.50;;
41446;SDS011;27185;52.040;4.490;2022-09-13T10:45:23;2.20;;;0.45;;
41446;SDS011;27185;52.040;4.490;2022-09-13T10:51:07;3.10;;;0.50;;
41446;SDS011;27185;52.040;4.490;2022-09-13T10:54:18;2.65;;;0.40;;
41446;SDS011;27185;52.040;4.490;2022-09-13T10:57:21;5.65;;;0.90;;
41446;SDS011;27185;52.040;4.490;2022-09-13T11:00:21;1.45;;;0.30;;
41446;SDS011;27185;52.040;4.490;2022-09-13T11:06:41;1.98;;;0.60;;
41446;SDS011;27185;52.040;4.490;2022-09-13T11:12:48;2.50;;;0.38;;
41446;SDS011;27185;52.040;4.490;2022-09-13T11:22:05;2.88;;;0.38;;
41446;SDS011;27185;52.040;4.490;2022-09-13T11:25:02;4.10;;;0.45;;
41446;SDS011;27185;52.040;4.490;2022-09-13T11:34:16;2.40;;;0.30;;
41446;SDS011;27185;52.040;4.490;2022-09-13T11:37:34;1.75;;;0.30;;
41446;SDS011;27185;52.040;4.490;2022-09-13T11:41:04;2.17;;;0.32;;
41446;SDS011;27185;52.040;4.490;2022-09-13T11:44:17;1.23;;;0.25;;
41446;SDS011;27185;52.040;4.490;2022-09-13T11:50:30;4.28;;;0.40;;
41446;SDS011;27185;52.040;4.490;2022-09-13T11:54:01;5.15;;;1.42;;
41446;SDS011;27185;52.040;4.490;2022-09-13T11:57:19;2.13;;;0.50;;
41446;SDS011;27185;52.040;4.490;2022-09-13T12:00:42;2.60;;;0.30;;
41446;SDS011;27185;52.040;4.490;2022-09-13T12:03:26;2.55;;;0.32;;
41446;SDS011;27185;52.040;4.490;2022-09-13T12:06:37;2.58;;;0.40;;
41446;SDS011;27185;52.040;4.490;2022-09-13T12:09:33;1.88;;;0.30;;
41446;SDS011;27185;52.040;4.490;2022-09-13T12:12:31;1.08;;;0.20;;
41446;SDS011;27185;52.040;4.490;2022-09-13T12:16:02;4.63;;;0.30;;
41446;SDS011;27185;52.040;4.490;2022-09-13T12:18:31;1.58;;;0.20;;
41446;SDS011;27185;52.040;4.490;2022-09-13T12:21:26;1.48;;;0.20;;
41446;SDS011;27185;52.040;4.490;2022-09-13T12:24:17;1.58;;;0.30;;
41446;SDS011;27185;52.040;4.490;2022-09-13T12:30:39;3.97;;;0.30;;
41446;SDS011;27185;52.040;4.490;2022-09-13T12:33:31;2.20;;;0.32;;
41446;SDS011;27185;52.040;4.490;2022-09-13T12:36:21;1.60;;;0.28;;
41446;SDS011;27185;52.040;4.490;2022-09-13T12:39:30;3.40;;;0.30;;
41446;SDS011;27185;52.040;4.490;2022-09-13T12:42:30;3.08;;;0.30;;
41446;SDS011;27185;52.040;4.490;2022-09-13T12:58:51;3.72;;;0.30;;
41446;SDS011;27185;52.040;4.490;2022-09-13T13:01:58;2.92;;;0.20;;
41446;SDS011;27185;52.040;4.490;2022-09-13T13:04:44;2.50;;;0.30;;
41446;SDS011;27185;52.040;4.490;2022-09-13T13:13:21;1.88;;;0.20;;
41446;SDS011;27185;52.040;4.490;2022-09-13T13:16:21;2.30;;;0.30;;
41446;SDS011;27185;52.040;4.490;2022-09-13T13:19:32;3.30;;;0.30;;
41446;SDS011;27185;52.040;4.490;2022-09-13T13:25:35;3.03;;;0.30;;
41446;SDS011;27185;52.040;4.490;2022-09-13T13:31:35;4.05;;;0.28;;
41446;SDS011;27185;52.040;4.490;2022-09-13T13:40:18;4.53;;;0.30;;
41446;SDS011;27185;52.040;4.490;2022-09-13T13:43:29;3.63;;;0.35;;
41446;SDS011;27185;52.040;4.490;2022-09-13T13:55:02;2.08;;;0.20;;
41446;SDS011;27185;52.040;4.490;2022-09-13T14:00:52;1.88;;;0.30;;
41446;SDS011;27185;52.040;4.490;2022-09-13T14:06:57;4.00;;;0.30;;
41446;SDS011;27185;52.040;4.490;2022-09-13T14:12:54;3.15;;;0.22;;
41446;SDS011;27185;52.040;4.490;2022-09-13T14:19:16;2.75;;;0.30;;
41446;SDS011;27185;52.040;4.490;2022-09-13T14:22:19;3.75;;;0.50;;
41446;SDS011;27185;52.040;4.490;2022-09-13T14:28:07;3.17;;;0.30;;
41446;SDS011;27185;52.040;4.490;2022-09-13T14:30:54;1.27;;;0.20;;
41446;SDS011;27185;52.040;4.490;2022-09-13T14:33:41;2.13;;;0.30;;
41446;SDS011;27185;52.040;4.490;2022-09-13T14:36:27;2.25;;;0.30;;
41446;SDS011;27185;52.040;4.490;2022-09-13T14:39:13;3.17;;;0.40;;
41446;SDS011;27185;52.040;4.490;2022-09-13T14:42:00;1.70;;;0.28;;
41446;SDS011;27185;52.040;4.490;2022-09-13T14:44:55;3.60;;;0.30;;
41446;SDS011;27185;52.040;4.490;2022-09-13T14:47:52;1.98;;;0.20;;
41446;SDS011;27185;52.040;4.490;2022-09-13T14:50:49;1.65;;;0.20;;
41446;SDS011;27185;52.040;4.490;2022-09-13T14:53:38;2.25;;;0.50;;
41446;SDS011;27185;52.040;4.490;2022-09-13T14:56:39;3.20;;;0.38;;
41446;SDS011;27185;52.040;4.490;2022-09-13T15:02:20;2.33;;;0.28;;
41446;SDS011;27185;52.040;4.490;2022-09-13T15:05:12;2.88;;;0.25;;
41446;SDS011;27185;52.040;4.490;2022-09-13T15:08:15;3.25;;;0.40;;
41446;SDS011;27185;52.040;4.490;2022-09-13T15:11:13;2.75;;;0.30;;
41446;SDS011;27185;52.040;4.490;2022-09-13T15:17:23;5.38;;;0.30;;
41446;SDS011;27185;52.040;4.490;2022-09-13T15:20:12;3.08;;;0.20;;
41446;SDS011;27185;52.040;4.490;2022-09-13T15:22:58;2.95;;;0.45;;
41446;SDS011;27185;52.040;4.490;2022-09-13T15:25:51;4.72;;;0.47;;
41446;SDS011;27185;52.040;4.490;2022-09-13T15:31:26;3.53;;;0.40;;
41446;SDS011;27185;52.040;4.490;2022-09-13T15:40:10;2.20;;;0.30;;
41446;SDS011;27185;52.040;4.490;2022-09-13T15:42:57;5.03;;;0.40;;
41446;SDS011;27185;52.040;4.490;2022-09-13T15:45:44;2.10;;;0.30;;
41446;SDS011;27185;52.040;4.490;2022-09-13T15:48:31;2.40;;;0.30;;
41446;SDS011;27185;52.040;4.490;2022-09-13T15:51:18;2.67;;;0.57;;
41446;SDS011;27185;52.040;4.490;2022-09-13T15:54:04;2.15;;;0.30;;
41446;SDS011;27185;52.040;4.490;2022-09-13T15:56:56;2.30;;;0.20;;
41446;SDS011;27185;52.040;4.490;2022-09-13T15:59:43;3.42;;;0.40;;
41446;SDS011;27185;52.040;4.490;2022-09-13T16:02:32;2.90;;;0.40;;
41446;SDS011;27185;52.040;4.490;2022-09-13T16:05:19;8.68;;;0.52;;
41446;SDS011;27185;52.040;4.490;2022-09-13T16:08:05;4.28;;;0.30;;
41446;SDS011;27185;52.040;4.490;2022-09-13T16:13:38;3.97;;;0.40;;
41446;SDS011;27185;52.040;4.490;2022-09-13T16:16:24;4.35;;;0.80;;
41446;SDS011;27185;52.040;4.490;2022-09-13T16:19:14;2.67;;;0.40;;
41446;SDS011;27185;52.040;4.490;2022-09-13T16:22:01;2.22;;;0.30;;
41446;SDS011;27185;52.040;4.490;2022-09-13T16:24:47;3.00;;;0.40;;
41446;SDS011;27185;52.040;4.490;2022-09-13T16:27:32;4.97;;;0.40;;
41446;SDS011;27185;52.040;4.490;2022-09-13T16:30:19;2.13;;;0.30;;
41446;SDS011;27185;52.040;4.490;2022-09-13T16:33:06;5.80;;;0.40;;
41446;SDS011;27185;52.040;4.490;2022-09-13T16:35:51;4.32;;;0.40;;
41446;SDS011;27185;52.040;4.490;2022-09-13T16:38:37;3.35;;;0.40;;
41446;SDS011;27185;52.040;4.490;2022-09-13T16:41:23;3.78;;;0.45;;
41446;SDS011;27185;52.040;4.490;2022-09-13T16:44:08;4.85;;;0.50;;
41446;SDS011;27185;52.040;4.490;2022-09-13T16:46:54;3.08;;;0.50;;
41446;SDS011;27185;52.040;4.490;2022-09-13T16:49:39;1.92;;;0.40;;
41446;SDS011;27185;52.040;4.490;2022-09-13T16:52:27;5.00;;;0.50;;
41446;SDS011;27185;52.040;4.490;2022-09-13T16:55:13;7.10;;;0.60;;
41446;SDS011;27185;52.040;4.490;2022-09-13T16:57:58;5.55;;;0.50;;
41446;SDS011;27185;52.040;4.490;2022-09-13T17:00:44;3.17;;;0.40;;
41446;SDS011;27185;52.040;4.490;2022-09-13T17:03:29;5.63;;;0.90;;
41446;SDS011;27185;52.040;4.490;2022-09-13T17:06:16;3.63;;;0.60;;
41446;SDS011;27185;52.040;4.490;2022-09-13T17:09:06;3.35;;;0.60;;
41446;SDS011;27185;52.040;4.490;2022-09-13T17:14:38;4.22;;;0.68;;
41446;SDS011;27185;52.040;4.490;2022-09-13T17:17:26;4.20;;;0.30;;
41446;SDS011;27185;52.040;4.490;2022-09-13T17:20:12;3.05;;;0.65;;
41446;SDS011;27185;52.040;4.490;2022-09-13T17:22:57;4.07;;;0.50;;
41446;SDS011;27185;52.040;4.490;2022-09-13T17:25:46;8.15;;;0.93;;
41446;SDS011;27185;52.040;4.490;2022-09-13T17:28:33;5.40;;;0.65;;
41446;SDS011;27185;52.040;4.490;2022-09-13T17:31:21;3.90;;;0.50;;
41446;SDS011;27185;52.040;4.490;2022-09-13T17:34:07;3.90;;;0.50;;
41446;SDS011;27185;52.040;4.490;2022-09-13T17:36:54;2.15;;;0.30;;
41446;SDS011;27185;52.040;4.490;2022-09-13T17:39:39;7.10;;;0.68;;
41446;SDS011;27185;52.040;4.490;2022-09-13T17:42:25;7.25;;;0.68;;
41446;SDS011;27185;52.040;4.490;2022-09-13T17:45:11;3.75;;;0.63;;
41446;SDS011;27185;52.040;4.490;2022-09-13T17:47:57;5.50;;;0.68;;
41446;SDS011;27185;52.040;4.490;2022-09-13T17:50:43;3.30;;;0.40;;
41446;SDS011;27185;52.040;4.490;2022-09-13T17:53:28;4.72;;;0.60;;
41446;SDS011;27185;52.040;4.490;2022-09-13T17:59:11;4.60;;;0.60;;
41446;SDS011;27185;52.040;4.490;2022-09-13T18:01:58;5.22;;;0.50;;
41446;SDS011;27185;52.040;4.490;2022-09-13T18:04:44;4.05;;;0.52;;
41446;SDS011;27185;52.040;4.490;2022-09-13T18:07:30;3.25;;;0.50;;
41446;SDS011;27185;52.040;4.490;2022-09-13T18:10:16;6.45;;;0.70;;
41446;SDS011;27185;52.040;4.490;2022-09-13T18:13:01;7.25;;;0.68;;
41446;SDS011;27185;52.040;4.490;2022-09-13T18:16:00;8.93;;;0.68;;
41446;SDS011;27185;52.040;4.490;2022-09-13T18:18:48;5.35;;;0.43;;
41446;SDS011;27185;52.040;4.490;2022-09-13T18:21:34;6.90;;;0.90;;
41446;SDS011;27185;52.040;4.490;2022-09-13T18:24:20;3.25;;;0.50;;
41446;SDS011;27185;52.040;4.490;2022-09-13T18:27:05;3.90;;;0.50;;
41446;SDS011;27185;52.040;4.490;2022-09-13T18:29:51;2.75;;;0.50;;
41446;SDS011;27185;52.040;4.490;2022-09-13T18:32:37;3.28;;;0.40;;
41446;SDS011;27185;52.040;4.490;2022-09-13T18:35:23;6.72;;;0.73;;
41446;SDS011;27185;52.040;4.490;2022-09-13T18:38:09;4.00;;;0.70;;
41446;SDS011;27185;52.040;4.490;2022-09-13T18:41:05;4.47;;;0.90;;
41446;SDS011;27185;52.040;4.490;2022-09-13T18:43:53;4.18;;;0.60;;
41446;SDS011;27185;52.040;4.490;2022-09-13T18:46:39;5.85;;;0.70;;
41446;SDS011;27185;52.040;4.490;2022-09-13T18:49:25;5.15;;;0.73;;
41446;SDS011;27185;52.040;4.490;2022-09-13T18:52:11;3.63;;;0.63;;
41446;SDS011;27185;52.040;4.490;2022-09-13T18:54:56;3.97;;;0.50;;
41446;SDS011;27185;52.040;4.490;2022-09-13T18:57:42;4.22;;;0.52;;
41446;SDS011;27185;52.040;4.490;2022-09-13T19:00:28;6.57;;;0.82;;
41446;SDS011;27185;52.040;4.490;2022-09-13T19:03:13;5.30;;;0.57;;
41446;SDS011;27185;52.040;4.490;2022-09-13T19:06:06;5.80;;;0.70;;
41446;SDS011;27185;52.040;4.490;2022-09-13T19:08:53;6.07;;;0.70;;
41446;SDS011;27185;52.040;4.490;2022-09-13T19:11:41;5.43;;;0.85;;
41446;SDS011;27185;52.040;4.490;2022-09-13T19:14:28;4.30;;;0.65;;
41446;SDS011;27185;52.040;4.490;2022-09-13T19:17:16;4.05;;;0.70;;
41446;SDS011;27185;52.040;4.490;2022-09-13T19:20:02;6.10;;;0.90;;
41446;SDS011;27185;52.040;4.490;2022-09-13T19:22:48;3.75;;;0.60;;
41446;SDS011;27185;52.040;4.490;2022-09-13T19:28:21;6.18;;;0.75;;
41446;SDS011;27185;52.040;4.490;2022-09-13T19:31:08;7.60;;;0.90;;
41446;SDS011;27185;52.040;4.490;2022-09-13T19:33:55;6.05;;;0.70;;
41446;SDS011;27185;52.040;4.490;2022-09-13T19:36:41;5.85;;;0.90;;
41446;SDS011;27185;52.040;4.490;2022-09-13T19:39:28;4.60;;;0.60;;
41446;SDS011;27185;52.040;4.490;2022-09-13T19:42:13;8.07;;;0.70;;